createdAt,value
2019-05-20T00:00:03.642Z,76.19
2019-05-20T00:02:29.951Z,76.41
2019-05-20T00:04:56.295Z,76.54
2019-05-20T00:07:22.645Z,77.00
2019-05-20T00:09:48.998Z,76.77
2019-05-20T00:12:15.324Z,76.45
2019-05-20T00:14:41.700Z,77.07
2019-05-20T00:17:07.981Z,76.79
2019-05-20T00:19:34.324Z,74.85
2019-05-20T00:22:00.659Z,74.97
2019-05-20T00:24:29.769Z,74.48
2019-05-20T00:26:56.110Z,73.42
2019-05-20T00:29:22.422Z,71.10
2019-05-20T00:31:48.765Z,72.40
2019-05-20T00:34:15.076Z,72.53
2019-05-20T00:36:41.405Z,73.26
2019-05-20T00:39:07.725Z,74.26
2019-05-20T00:41:34.042Z,74.12
2019-05-20T00:44:00.393Z,73.26
2019-05-20T00:46:26.693Z,74.47
2019-05-20T00:48:53.031Z,72.80
2019-05-20T00:51:19.385Z,72.79
2019-05-20T00:53:45.689Z,72.90
2019-05-20T00:56:12.022Z,71.41
2019-05-20T00:58:38.355Z,72.18
2019-05-20T01:01:04.703Z,72.93
2019-05-20T01:03:31.000Z,71.80
2019-05-20T01:05:57.314Z,71.78
2019-05-20T01:08:23.635Z,72.40
2019-05-20T01:10:50.014Z,72.55
2019-05-20T01:13:16.369Z,72.05
2019-05-20T01:15:42.658Z,70.70
2019-05-20T01:18:08.998Z,70.02
2019-05-20T01:20:35.339Z,70.16
2019-05-20T01:23:01.640Z,70.56
2019-05-20T01:25:27.984Z,71.57
2019-05-20T01:27:54.298Z,72.49
2019-05-20T01:30:20.636Z,72.27
2019-05-20T01:32:46.945Z,72.64
2019-05-20T01:35:13.271Z,71.98
2019-05-20T01:37:39.575Z,71.88
2019-05-20T01:40:05.886Z,72.52
2019-05-20T01:42:32.228Z,73.31
2019-05-20T01:44:58.527Z,71.00
2019-05-20T01:47:24.863Z,70.37
2019-05-20T01:49:51.199Z,70.65
2019-05-20T01:52:17.532Z,71.75
2019-05-20T01:54:43.884Z,72.65
2019-05-20T01:57:10.207Z,72.96
2019-05-20T01:59:36.537Z,73.02
2019-05-20T02:02:02.845Z,73.44
2019-05-20T02:04:29.173Z,73.62
2019-05-20T02:06:55.480Z,73.89
2019-05-20T02:09:21.789Z,74.29
2019-05-20T02:11:48.120Z,74.34
2019-05-20T02:14:14.424Z,73.84
2019-05-20T02:16:40.746Z,73.96
2019-05-20T02:19:07.080Z,74.21
2019-05-20T02:21:33.380Z,73.10
2019-05-20T02:23:59.711Z,73.06
2019-05-20T02:26:26.036Z,73.28
2019-05-20T02:28:52.348Z,73.79
2019-05-20T02:31:18.691Z,73.80
2019-05-20T02:33:51.826Z,74.12
2019-05-20T02:36:11.293Z,74.68
2019-05-20T02:38:37.610Z,75.66
2019-05-20T02:41:03.946Z,76.54
2019-05-20T02:43:30.249Z,75.80
2019-05-20T02:45:56.585Z,74.84
2019-05-20T02:48:22.901Z,75.13
2019-05-20T02:50:49.223Z,75.12
2019-05-20T02:53:15.529Z,75.26
2019-05-20T02:55:41.863Z,75.96
2019-05-20T02:58:08.178Z,75.92
2019-05-20T03:00:34.490Z,76.52
2019-05-20T03:03:00.853Z,76.76
2019-05-20T03:05:27.130Z,76.77
2019-05-20T03:07:53.470Z,76.54
2019-05-20T03:10:19.814Z,76.63
2019-05-20T03:12:46.102Z,75.73
2019-05-20T03:15:12.409Z,75.81
2019-05-20T03:17:38.729Z,75.57
2019-05-20T03:20:05.064Z,75.88
2019-05-20T03:22:31.360Z,75.49
2019-05-20T03:24:57.689Z,76.08
2019-05-20T03:27:24.018Z,75.62
2019-05-20T03:29:50.327Z,75.98
2019-05-20T03:32:16.646Z,76.37
2019-05-20T03:34:50.623Z,76.32
2019-05-20T03:37:09.370Z,75.84
2019-05-20T03:39:35.718Z,75.74
2019-05-20T03:42:02.024Z,76.28
2019-05-20T03:44:28.347Z,75.87
2019-05-20T03:46:54.657Z,75.95
2019-05-20T03:49:20.978Z,76.03
2019-05-20T03:51:47.284Z,76.17
2019-05-20T03:54:13.615Z,75.96
2019-05-20T03:56:39.943Z,76.03
2019-05-20T03:59:06.251Z,76.16
2019-05-20T04:01:32.579Z,76.62
2019-05-20T04:03:58.893Z,75.98
2019-05-20T04:06:25.199Z,76.26
2019-05-20T04:08:51.530Z,76.37
2019-05-20T04:11:17.834Z,75.90
2019-05-20T04:13:44.159Z,75.15
2019-05-20T04:16:10.483Z,74.25
2019-05-20T04:18:36.787Z,73.83
2019-05-20T04:21:03.114Z,73.50
2019-05-20T04:23:29.429Z,74.09
2019-05-20T04:25:55.808Z,73.94
2019-05-20T04:28:22.121Z,73.28
2019-05-20T04:30:48.472Z,72.90
2019-05-20T04:33:14.793Z,73.98
2019-05-20T04:35:41.107Z,74.08
2019-05-20T04:38:07.441Z,74.13
2019-05-20T04:40:33.753Z,74.75
2019-05-20T04:43:00.083Z,73.65
2019-05-20T04:45:26.406Z,72.84
2019-05-20T04:47:52.728Z,72.08
2019-05-20T04:50:19.050Z,72.67
2019-05-20T04:52:45.512Z,72.42
2019-05-20T04:55:11.821Z,71.40
2019-05-20T04:57:38.161Z,69.59
2019-05-20T05:00:04.483Z,67.67
2019-05-20T05:02:30.815Z,66.65
2019-05-20T05:04:57.124Z,65.72
2019-05-20T05:07:23.451Z,65.39
2019-05-20T05:09:49.762Z,63.64
2019-05-20T05:12:16.091Z,62.28
2019-05-20T05:14:42.458Z,61.46
2019-05-20T05:17:08.746Z,60.65
2019-05-20T05:19:35.086Z,61.18
2019-05-20T05:22:01.440Z,60.70
2019-05-20T05:24:27.757Z,59.84
2019-05-20T05:26:54.111Z,59.32
2019-05-20T05:29:20.420Z,59.74
2019-05-20T05:31:46.732Z,58.88
2019-05-20T05:34:13.167Z,58.42
2019-05-20T05:36:39.472Z,58.59
2019-05-20T05:39:05.768Z,58.28
2019-05-20T05:41:32.098Z,58.37
2019-05-20T05:43:58.397Z,58.59
2019-05-20T05:46:24.734Z,58.81
2019-05-20T05:48:51.047Z,58.69
2019-05-20T05:51:17.382Z,59.50
2019-05-20T05:53:43.804Z,59.60
2019-05-20T05:56:10.108Z,59.52
2019-05-20T05:58:42.408Z,58.86
2019-05-20T06:01:06.762Z,59.98
2019-05-20T06:03:33.062Z,59.57
2019-05-20T06:06:11.398Z,59.64
2019-05-20T06:08:25.703Z,60.35
2019-05-20T06:10:52.028Z,59.36
2019-05-20T06:13:18.375Z,56.72
2019-05-20T06:15:44.673Z,54.19
2019-05-20T06:18:11.443Z,55.21
2019-05-20T06:20:37.760Z,55.78
2019-05-20T06:23:04.102Z,55.97
2019-05-20T06:25:30.427Z,56.17
2019-05-20T06:27:56.741Z,54.00
2019-05-20T06:30:23.046Z,55.00
2019-05-20T06:32:49.352Z,55.43
2019-05-20T06:35:15.746Z,55.57
2019-05-20T06:37:42.052Z,57.37
2019-05-20T06:40:08.383Z,56.73
2019-05-20T06:42:34.698Z,54.35
2019-05-20T06:45:01.028Z,54.67
2019-05-20T06:47:27.346Z,56.13
2019-05-20T06:49:53.732Z,57.09
2019-05-20T06:52:34.836Z,56.40
2019-05-20T06:54:47.055Z,54.99
2019-05-20T06:57:13.477Z,53.45
2019-05-20T06:59:39.710Z,52.41
2019-05-20T07:02:06.041Z,50.32
2019-05-20T07:04:32.344Z,51.65
2019-05-20T07:06:58.674Z,51.84
2019-05-20T07:09:24.981Z,54.35
2019-05-20T07:11:53.101Z,53.29
2019-05-20T07:14:17.610Z,52.68
2019-05-20T07:16:43.915Z,52.27
2019-05-20T07:19:10.258Z,51.60
2019-05-20T07:21:36.582Z,51.38
2019-05-20T07:24:02.903Z,49.80
2019-05-20T07:26:29.216Z,48.46
2019-05-20T07:28:55.567Z,47.80
2019-05-20T07:31:21.898Z,45.90
2019-05-20T07:33:48.233Z,43.36
2019-05-20T07:36:14.572Z,42.23
2019-05-20T07:38:40.912Z,41.96
2019-05-20T07:41:07.243Z,40.75
2019-05-20T07:43:33.583Z,40.74
2019-05-20T07:45:59.892Z,39.41
2019-05-20T07:48:26.242Z,38.96
2019-05-20T07:50:52.572Z,39.60
2019-05-20T07:53:18.881Z,39.78
2019-05-20T07:55:45.209Z,39.60
2019-05-20T07:58:11.544Z,37.79
2019-05-20T08:00:37.862Z,37.07
2019-05-20T08:03:04.164Z,37.84
2019-05-20T08:05:30.504Z,36.36
2019-05-20T08:07:56.827Z,36.32
2019-05-20T08:10:23.149Z,34.88
2019-05-20T08:12:49.454Z,35.88
2019-05-20T08:15:15.766Z,36.48
2019-05-20T08:17:42.105Z,36.15
2019-05-20T08:20:08.412Z,35.30
2019-05-20T08:22:34.741Z,35.16
2019-05-20T08:25:01.067Z,34.72
2019-05-20T08:27:27.401Z,33.72
2019-05-20T08:29:53.726Z,34.58
2019-05-20T08:32:20.031Z,35.64
2019-05-20T08:34:46.363Z,35.80
2019-05-20T08:37:12.670Z,37.20
2019-05-20T08:39:38.985Z,38.08
2019-05-20T08:42:05.312Z,36.98
2019-05-20T08:44:31.648Z,37.19
2019-05-20T08:46:57.964Z,36.99
2019-05-20T08:49:24.289Z,35.63
2019-05-20T08:51:50.589Z,36.41
2019-05-20T08:54:16.994Z,37.65
2019-05-20T08:56:43.353Z,38.28
2019-05-20T08:59:09.679Z,36.71
2019-05-20T09:01:36.000Z,37.83
2019-05-20T09:04:02.333Z,37.13
2019-05-20T09:06:28.638Z,37.26
2019-05-20T09:08:54.970Z,38.19
2019-05-20T09:11:21.395Z,38.64
2019-05-20T09:13:47.653Z,38.41
2019-05-20T09:16:13.978Z,37.51
2019-05-20T09:18:40.305Z,36.96
2019-05-20T09:21:06.696Z,37.15
2019-05-20T09:23:33.000Z,36.83
2019-05-20T09:25:59.302Z,36.17
2019-05-20T09:28:25.597Z,35.29
2019-05-20T09:30:51.925Z,35.98
2019-05-20T09:33:18.228Z,35.57
2019-05-20T09:35:44.739Z,36.29
2019-05-20T09:38:20.269Z,36.36
2019-05-20T09:40:37.233Z,38.01
2019-05-20T09:43:03.556Z,36.79
2019-05-20T09:45:29.876Z,37.69
2019-05-20T09:47:56.202Z,38.36
2019-05-20T09:50:22.504Z,39.60
2019-05-20T09:52:48.841Z,37.68
2019-05-20T09:55:15.146Z,38.71
2019-05-20T09:57:41.453Z,39.30
2019-05-20T10:00:07.782Z,39.09
2019-05-20T10:02:38.040Z,39.78
2019-05-20T10:05:00.532Z,39.38
2019-05-20T10:07:26.854Z,40.21
2019-05-20T10:09:53.162Z,40.72
2019-05-20T10:12:19.493Z,40.82
2019-05-20T10:14:45.869Z,40.36
2019-05-20T10:17:12.194Z,40.57
2019-05-20T10:19:38.507Z,40.57
2019-05-20T10:22:04.909Z,40.68
2019-05-20T10:24:31.183Z,42.56
2019-05-20T10:26:57.509Z,42.33
2019-05-20T10:29:23.832Z,42.20
2019-05-20T10:31:50.137Z,42.43
2019-05-20T10:34:16.479Z,42.20
2019-05-20T10:36:42.814Z,42.87
2019-05-20T10:39:09.134Z,43.26
2019-05-20T10:41:35.444Z,41.63
2019-05-20T10:44:01.778Z,39.65
2019-05-20T10:46:28.105Z,39.96
2019-05-20T10:48:54.407Z,43.31
2019-05-20T10:51:20.746Z,44.20
2019-05-20T10:53:47.075Z,45.03
2019-05-20T10:56:13.790Z,46.20
2019-05-20T10:58:39.809Z,47.93
2019-05-20T11:01:06.152Z,48.63
2019-05-20T11:03:32.450Z,48.56
2019-05-20T11:05:58.759Z,49.08
2019-05-20T11:08:25.089Z,48.41
2019-05-20T11:10:51.443Z,48.08
2019-05-20T11:13:17.740Z,49.65
2019-05-20T11:15:44.072Z,50.60
2019-05-20T11:18:10.373Z,50.24
2019-05-20T11:20:36.706Z,48.85
2019-05-20T11:23:03.010Z,48.63
2019-05-20T11:25:29.334Z,48.32
2019-05-20T11:27:55.664Z,48.74
2019-05-20T11:30:22.216Z,48.26
2019-05-20T11:32:48.543Z,48.21
2019-05-20T11:35:14.853Z,47.23
2019-05-20T11:37:41.183Z,46.52
2019-05-20T11:40:07.674Z,46.42
2019-05-20T11:42:33.871Z,46.27
2019-05-20T11:45:00.197Z,46.11
2019-05-20T11:47:26.507Z,47.01
2019-05-20T11:49:52.830Z,47.17
2019-05-20T11:52:19.128Z,47.92
2019-05-20T11:54:45.460Z,47.99
2019-05-20T11:57:11.766Z,47.99
2019-05-20T11:59:38.106Z,48.21
2019-05-20T12:02:04.466Z,48.31
2019-05-20T12:04:30.745Z,48.86
2019-05-20T12:06:57.075Z,48.26
2019-05-20T12:09:23.387Z,50.31
2019-05-20T12:11:49.733Z,51.44
2019-05-20T12:14:16.056Z,55.54
2019-05-20T12:16:42.368Z,57.32
2019-05-20T12:19:08.673Z,58.12
2019-05-20T12:21:35.010Z,58.98
2019-05-20T12:24:01.345Z,59.32
2019-05-20T12:26:27.696Z,60.79
2019-05-20T12:28:53.999Z,61.37
2019-05-20T12:31:20.301Z,60.79
2019-05-20T12:33:46.605Z,61.21
2019-05-20T12:36:12.934Z,56.83
2019-05-20T12:38:39.240Z,54.25
2019-05-20T12:41:05.576Z,54.51
2019-05-20T12:43:31.891Z,59.74
2019-05-20T12:45:58.196Z,63.36
2019-05-20T12:48:24.530Z,67.97
2019-05-20T12:50:50.833Z,67.67
2019-05-20T12:53:17.154Z,71.90
2019-05-20T12:55:43.473Z,73.00
2019-05-20T12:58:09.801Z,70.06
2019-05-20T13:00:36.109Z,69.45
2019-05-20T13:03:02.424Z,69.71
2019-05-20T13:05:28.748Z,71.15
2019-05-20T13:07:55.074Z,72.40
2019-05-20T13:10:31.652Z,73.08
2019-05-20T13:12:47.699Z,75.06
2019-05-20T13:15:14.028Z,73.56
2019-05-20T13:17:44.177Z,72.54
2019-05-20T13:20:06.669Z,72.22
2019-05-20T13:22:32.991Z,70.62
2019-05-20T13:24:59.293Z,73.60
2019-05-20T13:27:25.633Z,73.21
2019-05-20T13:29:51.940Z,71.05
2019-05-20T13:32:18.258Z,67.95
2019-05-20T13:34:44.577Z,67.64
2019-05-20T13:37:10.901Z,66.14
2019-05-20T13:39:37.204Z,65.77
2019-05-20T13:42:03.507Z,64.31
2019-05-20T13:44:29.831Z,62.38
2019-05-20T13:46:56.170Z,60.11
2019-05-20T13:49:22.493Z,58.96
2019-05-20T13:51:48.815Z,58.31
2019-05-20T13:54:15.117Z,56.82
2019-05-20T13:56:41.443Z,57.50
2019-05-20T13:59:07.743Z,57.64
2019-05-20T14:01:34.051Z,58.90
2019-05-20T14:04:00.380Z,57.07
2019-05-20T14:06:26.735Z,55.31
2019-05-20T14:08:53.064Z,54.90
2019-05-20T14:11:32.562Z,55.59
2019-05-20T14:13:45.697Z,54.14
2019-05-20T14:16:12.005Z,52.67
2019-05-20T14:18:38.336Z,50.11
2019-05-20T14:21:04.655Z,50.02
2019-05-20T14:23:31.007Z,49.76
2019-05-20T14:25:57.337Z,50.11
2019-05-20T14:28:23.653Z,50.70
2019-05-20T14:30:49.952Z,56.16
2019-05-20T14:33:16.283Z,61.15
2019-05-20T14:35:42.591Z,63.73
2019-05-20T14:38:08.919Z,62.03
2019-05-20T14:40:35.238Z,53.71
2019-05-20T14:43:01.551Z,53.16
2019-05-20T14:45:27.891Z,53.24
2019-05-20T14:47:54.209Z,52.96
2019-05-20T14:50:20.519Z,52.81
2019-05-20T14:52:46.824Z,53.10
2019-05-20T14:55:13.199Z,54.36
2019-05-20T14:57:39.449Z,60.39
2019-05-20T15:00:05.755Z,64.26
2019-05-20T15:02:32.103Z,66.70
2019-05-20T15:04:58.407Z,67.21
2019-05-20T15:07:30.307Z,66.74
2019-05-20T15:09:51.108Z,66.98
2019-05-20T15:12:17.417Z,63.25
2019-05-20T15:14:43.754Z,63.69
2019-05-20T15:17:10.061Z,63.61
2019-05-20T15:19:36.380Z,64.45
2019-05-20T15:22:02.758Z,63.73
2019-05-20T15:24:29.069Z,64.17
2019-05-20T15:26:55.719Z,64.95
2019-05-20T15:29:28.100Z,66.00
2019-05-20T15:31:48.274Z,65.77
2019-05-20T15:34:14.628Z,67.11
2019-05-20T15:36:40.962Z,68.00
2019-05-20T15:39:07.283Z,68.55
2019-05-20T15:41:33.655Z,68.53
2019-05-20T15:43:59.941Z,70.09
2019-05-20T15:46:26.255Z,69.35
2019-05-20T15:48:52.575Z,69.16
2019-05-20T15:51:18.878Z,67.26
2019-05-20T15:53:45.218Z,67.72
2019-05-20T15:56:11.580Z,66.15
2019-05-20T15:58:37.879Z,67.21
2019-05-20T16:01:04.198Z,69.74
2019-05-20T16:03:30.467Z,71.29
2019-05-20T16:05:59.758Z,72.97
2019-05-20T16:08:23.112Z,73.41
2019-05-20T16:10:49.447Z,73.66
2019-05-20T16:13:15.753Z,73.92
2019-05-20T16:15:42.084Z,73.57
2019-05-20T16:18:08.429Z,73.72
2019-05-20T16:20:34.728Z,73.58
2019-05-20T16:23:01.088Z,72.84
2019-05-20T16:25:27.398Z,72.95
2019-05-20T16:27:53.756Z,72.91
2019-05-20T16:30:20.039Z,73.02
2019-05-20T16:32:46.365Z,72.89
2019-05-20T16:35:12.689Z,72.64
2019-05-20T16:37:39.014Z,73.16
2019-05-20T16:40:05.377Z,73.22
2019-05-20T16:42:31.698Z,73.22
2019-05-20T16:44:58.007Z,73.51
2019-05-20T16:47:24.342Z,73.40
2019-05-20T16:49:50.653Z,74.09
2019-05-20T16:52:17.029Z,74.30
2019-05-20T16:54:43.341Z,74.55
2019-05-20T16:57:09.664Z,74.63
2019-05-20T16:59:35.988Z,74.85
2019-05-20T17:02:02.290Z,74.74
2019-05-20T17:04:28.647Z,75.01
2019-05-20T17:06:54.928Z,75.56
2019-05-20T17:09:21.294Z,75.84
2019-05-20T17:11:47.598Z,76.23
2019-05-20T17:14:13.938Z,76.48
2019-05-20T17:16:40.263Z,76.45
2019-05-20T17:19:06.579Z,76.28
2019-05-20T17:21:32.913Z,76.60
2019-05-20T17:23:59.216Z,76.39
2019-05-20T17:26:25.545Z,76.38
2019-05-20T17:28:51.863Z,76.17
2019-05-20T17:31:18.194Z,76.02
2019-05-20T17:33:44.522Z,76.02
2019-05-20T17:36:10.822Z,76.64
2019-05-20T17:38:37.149Z,76.71
2019-05-20T17:41:03.458Z,77.06
2019-05-20T17:43:29.801Z,78.86
2019-05-20T17:45:56.123Z,80.00
2019-05-20T17:48:22.434Z,80.33
2019-05-20T17:50:48.815Z,80.61
2019-05-20T17:53:15.086Z,80.87
2019-05-20T17:55:41.416Z,81.55
2019-05-20T17:58:07.735Z,81.75
2019-05-20T18:00:34.035Z,81.79
2019-05-20T18:03:00.671Z,81.86
2019-05-20T18:05:26.979Z,82.00
2019-05-20T18:07:53.332Z,81.68
2019-05-20T18:10:19.652Z,82.42
2019-05-20T18:12:45.990Z,83.04
2019-05-20T18:15:12.322Z,82.31
2019-05-20T18:17:38.645Z,83.31
2019-05-20T18:20:04.960Z,82.66
2019-05-20T18:22:31.274Z,83.25
2019-05-20T18:24:58.566Z,82.92
2019-05-20T18:27:24.991Z,82.47
2019-05-20T18:29:51.348Z,83.66
2019-05-20T18:32:17.651Z,83.64
2019-05-20T18:34:43.964Z,83.89
2019-05-20T18:37:10.288Z,83.56
2019-05-20T18:39:36.597Z,83.50
2019-05-20T18:42:02.927Z,83.93
2019-05-20T18:44:29.257Z,84.39
2019-05-20T18:46:55.585Z,83.54
2019-05-20T18:49:21.899Z,83.16
2019-05-20T18:51:48.229Z,85.22
2019-05-20T18:54:14.566Z,84.07
2019-05-20T18:56:40.896Z,84.35
2019-05-20T18:59:07.229Z,83.81
2019-05-20T19:01:47.326Z,83.26
2019-05-20T19:04:00.219Z,84.58
2019-05-20T19:06:26.582Z,84.59
2019-05-20T19:08:52.888Z,85.02
2019-05-20T19:11:19.208Z,85.14
2019-05-20T19:13:45.531Z,85.10
2019-05-20T19:16:11.851Z,84.86
2019-05-20T19:18:38.197Z,85.14
2019-05-20T19:21:04.497Z,85.65
2019-05-20T19:23:30.828Z,85.71
2019-05-20T19:25:57.133Z,86.00
2019-05-20T19:28:23.468Z,86.39
2019-05-20T19:30:49.770Z,86.42
2019-05-20T19:33:16.082Z,86.79
2019-05-20T19:35:42.459Z,86.86
2019-05-20T19:38:08.741Z,87.67
2019-05-20T19:40:35.079Z,88.05
2019-05-20T19:43:01.405Z,88.01
2019-05-20T19:45:27.715Z,88.28
2019-05-20T19:47:54.047Z,88.52
2019-05-20T19:50:20.348Z,89.35
2019-05-20T19:52:46.673Z,89.61
2019-05-20T19:55:13.000Z,89.23
2019-05-20T19:57:39.303Z,89.35
2019-05-20T20:00:05.624Z,89.47
2019-05-20T20:02:31.928Z,89.54
2019-05-20T20:04:58.251Z,90.12
2019-05-20T20:07:24.565Z,90.16
2019-05-20T20:09:50.897Z,89.62
2019-05-20T20:12:17.218Z,89.83
2019-05-20T20:14:43.575Z,89.68
2019-05-20T20:17:09.905Z,89.52
2019-05-20T20:19:36.391Z,89.40
2019-05-20T20:22:02.707Z,89.21
2019-05-20T20:24:29.036Z,89.29
2019-05-20T20:26:55.344Z,89.13
2019-05-20T20:29:21.702Z,89.71
2019-05-20T20:31:48.024Z,90.18
2019-05-20T20:34:14.372Z,89.66
2019-05-20T20:36:40.710Z,89.80
2019-05-20T20:39:07.018Z,90.16
2019-05-20T20:41:33.342Z,90.80
2019-05-20T20:43:59.648Z,90.79
2019-05-20T20:46:25.980Z,90.93
2019-05-20T20:48:52.291Z,91.60
2019-05-20T20:51:18.599Z,91.87
2019-05-20T20:53:44.926Z,91.75
2019-05-20T20:56:24.080Z,91.84
2019-05-20T20:58:37.561Z,91.46
2019-05-20T21:01:03.860Z,91.36
2019-05-20T21:03:30.187Z,91.49
2019-05-20T21:05:56.492Z,92.04
2019-05-20T21:08:22.826Z,92.26
2019-05-20T21:10:49.143Z,92.08
2019-05-20T21:13:15.452Z,92.05
2019-05-20T21:15:41.784Z,91.53
2019-05-20T21:18:08.099Z,91.56
2019-05-20T21:20:34.421Z,91.75
2019-05-20T21:23:00.729Z,91.68
2019-05-20T21:25:27.077Z,92.35
2019-05-20T21:27:53.410Z,91.83
2019-05-20T21:30:19.711Z,91.46
2019-05-20T21:32:46.038Z,91.62
2019-05-20T21:35:12.368Z,91.29
2019-05-20T21:37:38.710Z,91.28
2019-05-20T21:40:05.033Z,91.49
2019-05-20T21:42:31.344Z,91.98
2019-05-20T21:44:57.715Z,91.67
2019-05-20T21:47:23.980Z,92.35
2019-05-20T21:49:50.301Z,93.36
2019-05-20T21:52:16.617Z,93.73
2019-05-20T21:54:42.946Z,94.21
2019-05-20T21:57:09.273Z,94.79
2019-05-20T21:59:35.584Z,94.75
2019-05-20T22:02:01.906Z,95.05
2019-05-20T22:04:28.212Z,95.04
2019-05-20T22:06:54.544Z,94.78
2019-05-20T22:09:20.878Z,95.42
2019-05-20T22:11:47.195Z,95.46
2019-05-20T22:14:13.524Z,95.03
2019-05-20T22:16:39.928Z,95.29
2019-05-20T22:19:06.206Z,94.56
2019-05-20T22:21:32.529Z,95.03
2019-05-20T22:23:58.895Z,95.17
2019-05-20T22:26:25.190Z,94.94
2019-05-20T22:28:51.531Z,94.23
2019-05-20T22:31:17.858Z,95.34
2019-05-20T22:33:44.166Z,96.58
2019-05-20T22:36:10.488Z,95.80
2019-05-20T22:38:36.830Z,95.83
2019-05-20T22:41:03.142Z,96.24
2019-05-20T22:43:29.447Z,96.58
2019-05-20T22:45:55.776Z,97.28
2019-05-20T22:48:22.117Z,97.25
2019-05-20T22:50:48.989Z,97.38
2019-05-20T22:53:14.749Z,98.23
2019-05-20T22:55:41.064Z,98.63
2019-05-20T22:58:07.368Z,99.04
2019-05-20T23:00:33.703Z,99.07
2019-05-20T23:03:00.025Z,98.71
2019-05-20T23:05:26.352Z,98.39
2019-05-20T23:07:52.679Z,98.93
2019-05-20T23:10:18.981Z,99.45
2019-05-20T23:12:45.321Z,99.90
2019-05-20T23:15:11.637Z,100.00
2019-05-20T23:17:37.971Z,100.00
2019-05-20T23:20:04.285Z,99.97
2019-05-20T23:22:30.615Z,100.00
2019-05-20T23:24:56.923Z,100.00
2019-05-20T23:27:23.236Z,100.00
2019-05-20T23:29:49.572Z,100.00
2019-05-20T23:32:15.884Z,100.00
2019-05-20T23:34:42.217Z,100.00
2019-05-20T23:37:08.523Z,100.00
2019-05-20T23:39:34.854Z,100.00
2019-05-20T23:42:01.159Z,100.00
2019-05-20T23:44:27.496Z,100.00
2019-05-20T23:46:53.815Z,100.00
2019-05-20T23:49:20.125Z,100.00
2019-05-20T23:51:46.453Z,100.00
2019-05-20T23:54:12.761Z,100.00
2019-05-20T23:56:39.089Z,100.00
2019-05-20T23:59:05.397Z,100.00
